Time;durP1;ratioP1;P1;durP2;ratioP2;P2;SDS_P1;SDS_P2;PMS_P1;PMS_P2;Temp;Humidity;BMP_temperature;BMP_pressure;BME280_temperature;BME280_humidity;BME280_pressure;Samples;Min_cycle;Max_cycle;Signal;HPM_P1;HPM_P2
2021/01/27 00:01:29;;;;;;;44.33;22.03;;;;;;;;;;4912776;28;20617;-74
2021/01/27 00:03:51;;;;;;;53.40;25.13;;;;;;;;;;4914862;28;20705;-74
2021/01/27 00:06:13;;;;;;;50.27;24.07;;;;;;;;;;4923369;28;20597;-74
2021/01/27 00:08:36;;;;;;;46.43;23.43;;;;;;;;;;4928712;28;20697;-75
2021/01/27 00:10:58;;;;;;;47.57;23.37;;;;;;;;;;4917931;28;20593;-75
2021/01/27 00:13:20;;;;;;;39.07;21.33;;;;;;;;;;4912406;28;20624;-75
2021/01/27 00:15:44;;;;;;;47.10;22.63;;;-1.70;99.90;;;;;;4913151;28;20609;-74
2021/01/27 00:18:08;;;;;;;41.27;20.33;;;-1.70;1.00;;;;;;4913057;28;20613;-74
2021/01/27 00:20:31;;;;;;;40.23;20.73;;;;;;;;;;4913795;28;20670;-75
2021/01/27 00:22:53;;;;;;;41.07;20.77;;;;;;;;;;4912600;28;20717;-74
2021/01/27 00:25:19;;;;;;;41.83;21.57;;;-1.50;1.00;;;;;;4913972;28;21254;-74
2021/01/27 00:27:41;;;;;;;46.47;21.97;;;;;;;;;;4912557;28;20621;-75
2021/01/27 00:30:07;;;;;;;44.73;21.50;;;-1.40;1.00;;;;;;4911418;28;20616;-75
2021/01/27 00:32:30;;;;;;;38.83;20.23;;;-1.30;99.90;;;;;;4887264;28;20663;-75
2021/01/27 00:34:52;;;;;;;40.33;20.90;;;;;;;;;;4914856;28;20657;-73
2021/01/27 00:37:15;;;;;;;43.10;21.73;;;;;;;;;;4912641;28;20678;-75
2021/01/27 00:39:37;;;;;;;37.23;20.63;;;;;;;;;;4913188;28;20605;-74
2021/01/27 00:41:59;;;;;;;40.17;19.67;;;;;;;;;;4912444;28;20642;-74
2021/01/27 00:44:21;;;;;;;40.43;19.10;;;;;;;;;;4913896;28;20711;-75
2021/01/27 00:46:44;;;;;;;37.97;19.83;;;;;;;;;;4911788;28;20670;-75
2021/01/27 00:49:06;;;;;;;35.33;17.30;;;-1.40;1.00;;;;;;4894399;28;20656;-76
2021/01/27 00:51:29;;;;;;;37.17;18.80;;;;;;;;;;4894430;28;21020;-75
2021/01/27 00:53:52;;;;;;;37.30;18.00;;;;;;;;;;4912226;28;20617;-76
2021/01/27 00:56:15;;;;;;;37.00;18.77;;;;;;;;;;4912050;28;20682;-75
2021/01/27 00:58:37;;;;;;;38.47;18.13;;;;;;;;;;4912409;28;20667;-74
2021/01/27 01:01:11;;;;;;;35.37;19.20;;;;;;;;;;4908473;28;20647;-74
2021/01/27 01:03:33;;;;;;;33.77;17.60;;;;;;;;;;4913584;28;20713;-73
2021/01/27 01:05:56;;;;;;;33.67;17.13;;;-1.40;1.00;;;;;;4916235;28;20608;-75
2021/01/27 01:08:20;;;;;;;30.70;15.90;;;-1.40;1.00;;;;;;4916025;28;20616;-74
2021/01/27 01:10:47;;;;;;;30.43;15.07;;;-1.40;1.00;;;;;;4917552;28;20646;-75
2021/01/27 01:13:12;;;;;;;28.40;15.00;;;-1.40;1.00;;;;;;4914179;28;20620;-74
2021/01/27 01:15:35;;;;;;;32.33;15.60;;;;;;;;;;4917434;28;20648;-74
2021/01/27 01:17:57;;;;;;;25.57;14.80;;;;;;;;;;4917148;28;20620;-74
2021/01/27 01:20:20;;;;;;;28.33;15.60;;;;;;;;;;4915688;28;20674;-75
2021/01/27 01:22:44;;;;;;;27.97;14.77;;;-1.40;1.00;;;;;;4914332;28;20644;-75
2021/01/27 01:25:07;;;;;;;27.90;14.57;;;-1.50;1.00;;;;;;4898253;28;20695;-74
2021/01/27 01:27:29;;;;;;;25.33;13.17;;;;;;;;;;4917339;28;21153;-74
2021/01/27 01:29:51;;;;;;;25.10;14.30;;;;;;;;;;4915767;28;21262;-75
2021/01/27 01:32:14;;;;;;;32.13;17.23;;;;;;;;;;4916084;28;20616;-75
2021/01/27 01:34:36;;;;;;;26.73;15.57;;;;;;;;;;4915963;28;20616;-76
2021/01/27 01:36:58;;;;;;;29.10;15.53;;;;;;;;;;4917573;28;20612;-74
2021/01/27 01:39:21;;;;;;;28.63;16.57;;;-1.50;1.00;;;;;;4915363;28;20639;-74
2021/01/27 01:41:43;;;;;;;28.43;15.30;;;;;;;;;;4915509;28;21219;-74
2021/01/27 01:44:06;;;;;;;26.17;15.80;;;;;;;;;;4914594;28;20648;-78
2021/01/27 01:46:29;;;;;;;26.93;13.97;;;;;;;;;;4890605;28;20616;-75
2021/01/27 01:48:54;;;;;;;25.77;13.70;;;-1.50;1.00;;;;;;4916844;28;20947;-75
2021/01/27 01:51:21;;;;;;;20.77;12.60;;;-1.50;1.00;;;;;;4916393;28;20608;-74
2021/01/27 01:53:43;;;;;;;28.13;15.73;;;;;;;;;;4915781;28;20608;-75
2021/01/27 01:56:09;;;;;;;31.23;16.97;;;-1.50;1.00;;;;;;4914016;28;20646;-74
2021/01/27 01:58:31;;;;;;;30.43;14.43;;;;;;;;;;4911471;28;20608;-74
2021/01/27 02:03:40;;;;;;;27.37;14.23;;;-1.50;1.00;;;;;;4870076;28;20634;-75
2021/01/27 02:06:03;;;;;;;20.53;11.47;;;;;;;;;;4894782;28;20706;-75
2021/01/27 02:08:25;;;;;;;24.17;13.87;;;;;;;;;;4889614;28;20609;-75
2021/01/27 02:10:47;;;;;;;21.43;12.47;;;;;;;;;;4896888;28;20644;-75
2021/01/27 02:13:23;;;;;;;27.53;15.57;;;-1.40;1.00;;;;;;4874151;28;20688;-76
2021/01/27 02:16:05;;;;;;;24.27;13.50;;;-1.40;1.00;;;;;;4896082;28;20635;-74
2021/01/27 02:18:40;;;;;;;21.83;13.00;;;-1.50;1.00;;;;;;4892528;28;20643;-76
2021/01/27 02:21:49;;;;;;;23.13;12.93;;;-1.40;1.00;;;;;;4896100;28;20593;-74
2021/01/27 02:24:32;;;;;;;25.77;13.77;;;-1.40;1.00;;;;;;4878095;28;20756;-75
2021/01/27 02:27:07;;;;;;;25.10;13.90;;;-1.40;3.60;;;;;;4895590;28;20578;-75
2021/01/27 02:29:44;;;;;;;23.10;13.27;;;;;;;;;;4889001;28;20995;-75
2021/01/27 02:32:35;;;;;;;24.93;13.33;;;-1.40;10.00;;;;;;4878541;28;20724;-75
2021/01/27 02:35:05;;;;;;;22.40;13.40;;;-1.40;12.60;;;;;;4871928;28;20630;-76
2021/01/27 02:37:32;;;;;;;22.00;13.50;;;-1.30;15.00;;;;;;4876688;28;21534;-75
2021/01/27 02:40:03;;;;;;;23.87;13.73;;;-1.40;19.50;;;;;;4895871;28;20602;-74
2021/01/27 02:42:32;;;;;;;22.37;12.63;;;-1.30;25.10;;;;;;4896239;28;20623;-74
2021/01/27 02:44:59;;;;;;;22.13;13.27;;;-1.30;26.20;;;;;;4877678;28;20654;-76
2021/01/27 02:47:26;;;;;;;24.77;14.23;;;-1.30;26.00;;;;;;4894098;28;20613;-75
2021/01/27 02:49:53;;;;;;;24.60;12.87;;;-1.30;25.10;;;;;;4894703;28;20610;-74
2021/01/27 02:52:20;;;;;;;23.00;13.47;;;-1.30;25.10;;;;;;4895482;28;20675;-74
2021/01/27 02:54:46;;;;;;;21.73;12.97;;;-1.30;22.90;;;;;;4896150;28;20594;-75
2021/01/27 02:57:14;;;;;;;20.93;12.70;;;-1.20;23.10;;;;;;4876186;28;20630;-76
2021/01/27 02:59:43;;;;;;;25.00;13.93;;;-1.20;26.30;;;;;;4895330;28;21004;-74
2021/01/27 03:02:09;;;;;;;20.87;13.30;;;-1.20;28.40;;;;;;4888355;28;20979;-76
2021/01/27 03:04:38;;;;;;;21.43;12.40;;;-1.20;30.80;;;;;;4884837;28;20638;-75
2021/01/27 03:07:02;;;;;;;17.73;11.30;;;-1.20;32.80;;;;;;4891495;28;20679;-75
2021/01/27 03:09:31;;;;;;;20.20;12.10;;;-1.10;31.10;;;;;;4886663;28;21006;-75
2021/01/27 03:11:53;;;;;;;20.03;11.73;;;;;;;;;;4886046;28;20683;-76
2021/01/27 03:14:16;;;;;;;19.93;12.10;;;;;;;;;;4878635;28;20626;-75
2021/01/27 03:16:42;;;;;;;17.40;11.57;;;-1.10;29.60;;;;;;4884566;28;20606;-76
2021/01/27 03:19:08;;;;;;;20.23;11.90;;;-1.10;27.90;;;;;;4884869;28;20615;-75
2021/01/27 03:21:38;;;;;;;18.57;12.07;;;-1.10;22.30;;;;;;4886992;28;20597;-75
2021/01/27 03:24:05;;;;;;;16.70;10.17;;;-1.10;19.80;;;;;;4887428;28;20598;-74
2021/01/27 03:26:34;;;;;;;20.40;12.63;;;-1.10;19.20;;;;;;4881171;28;20620;-75
2021/01/27 03:29:00;;;;;;;23.27;14.07;;;-1.10;21.80;;;;;;4885938;28;21028;-75
2021/01/27 03:31:23;;;;;;;19.47;12.10;;;;;;;;;;4886325;28;20626;-76
2021/01/27 03:33:49;;;;;;;21.07;12.33;;;-1.00;30.80;;;;;;4886087;28;21015;-74
2021/01/27 03:36:14;;;;;;;20.43;12.30;;;-1.00;28.80;;;;;;4887684;28;20671;-75
2021/01/27 03:38:39;;;;;;;19.93;12.93;;;-1.00;21.50;;;;;;4883656;28;20618;-75
2021/01/27 03:41:09;;;;;;;18.83;11.57;;;-0.10;16.60;;;;;;4887765;28;20647;-75
2021/01/27 03:43:38;;;;;;;21.63;13.33;;;-1.00;17.00;;;;;;4887728;28;20639;-75
2021/01/27 03:46:08;;;;;;;19.37;12.47;;;-0.90;19.20;;;;;;4887089;28;21227;-74
2021/01/27 03:48:36;;;;;;;18.70;12.07;;;-1.00;19.60;;;;;;4889515;28;20644;-76
2021/01/27 03:51:02;;;;;;;18.80;11.83;;;-1.00;21.70;;;;;;4885145;28;20614;-75
2021/01/27 03:53:26;;;;;;;18.00;11.70;;;-1.00;25.40;;;;;;4890263;28;20679;-75
2021/01/27 03:55:53;;;;;;;17.53;11.27;;;-1.00;30.70;;;;;;4884200;28;20609;-75
2021/01/27 03:58:20;;;;;;;19.53;11.27;;;-0.90;29.30;;;;;;4892012;28;20614;-76
2021/01/27 04:00:46;;;;;;;29.70;15.80;;;;;;;;;;4881478;28;20650;-75
2021/01/27 04:03:14;;;;;;;21.80;14.00;;;-0.90;30.10;;;;;;4882373;28;20642;-75
2021/01/27 04:05:37;;;;;;;20.47;12.87;;;;;;;;;;4885917;28;20622;-75
2021/01/27 04:07:59;;;;;;;20.30;11.40;;;;;;;;;;4885856;28;20610;-75
2021/01/27 04:10:21;;;;;;;17.57;11.70;;;;;;;;;;4884544;28;20972;-75
2021/01/27 04:12:43;;;;;;;17.90;11.83;;;;;;;;;;4885118;28;20622;-74
2021/01/27 04:15:07;;;;;;;18.63;11.17;;;-0.80;32.50;;;;;;4885934;28;20617;-75
2021/01/27 04:17:31;;;;;;;16.10;11.10;;;-0.90;30.80;;;;;;4879293;28;20621;-75
2021/01/27 04:19:53;;;;;;;15.30;10.07;;;;;;;;;;4886345;28;20609;-75
2021/01/27 04:22:15;;;;;;;17.17;11.37;;;;;;;;;;4884110;28;20740;-74
2021/01/27 04:24:38;;;;;;;16.30;11.10;;;;;;;;;;4883927;28;20650;-75
2021/01/27 04:27:00;;;;;;;14.00;9.53;;;;;;;;;;4883146;28;20606;-75
2021/01/27 04:29:22;;;;;;;14.23;10.03;;;;;;;;;;4880394;28;20618;-77
2021/01/27 04:31:44;;;;;;;15.60;9.73;;;;;;;;;;4882731;28;20646;-75
2021/01/27 04:34:07;;;;;;;16.57;11.40;;;-0.90;23.20;;;;;;4883633;28;20722;-75
2021/01/27 04:36:29;;;;;;;18.63;10.30;;;;;;;;;;4883015;28;20611;-75
2021/01/27 04:38:52;;;;;;;16.73;11.03;;;;;;;;;;4884533;28;20656;-75
2021/01/27 04:41:14;;;;;;;16.83;10.87;;;;;;;;;;4888194;28;20623;-75
2021/01/27 04:43:38;;;;;;;15.27;10.33;;;-0.80;17.30;;;;;;4886623;28;20613;-74
2021/01/27 04:46:06;;;;;;;13.93;10.47;;;-0.80;14.30;;;;;;4885901;28;21258;-75
2021/01/27 04:48:36;;;;;;;15.17;10.30;;;-0.90;15.20;;;;;;4892954;28;20598;-74
2021/01/27 04:51:03;;;;;;;13.17;9.67;;;-0.80;12.80;;;;;;4887182;28;20590;-76
2021/01/27 04:53:47;;;;;;;16.97;10.37;;;-0.90;11.80;;;;;;4886358;28;21223;-75
2021/01/27 04:56:37;;;;;;;15.60;10.27;;;-0.80;12.00;;;;;;4889632;28;20642;-75
2021/01/27 04:59:08;;;;;;;13.87;9.50;;;-0.80;12.60;;;;;;4884175;28;20621;-75
2021/01/27 05:01:55;;;;;;;15.67;10.87;;;-0.90;11.90;;;;;;4884651;28;20654;-76
2021/01/27 05:04:24;;;;;;;17.80;10.67;;;-0.90;12.70;;;;;;4862843;28;21165;-75
2021/01/27 05:06:50;;;;;;;16.60;10.30;;;-0.80;12.60;;;;;;4891497;28;20647;-75
2021/01/27 05:09:19;;;;;;;15.57;10.10;;;-0.80;15.60;;;;;;4889581;28;20663;-74
2021/01/27 05:11:42;;;;;;;14.07;9.90;;;-0.80;18.70;;;;;;4890107;28;20606;-74
2021/01/27 05:14:07;;;;;;;14.70;10.27;;;-0.80;20.00;;;;;;4882798;28;20672;-74
2021/01/27 05:16:32;;;;;;;16.40;10.10;;;-0.80;14.70;;;;;;4887866;28;20598;-75
2021/01/27 05:18:58;;;;;;;15.63;11.13;;;-0.80;16.30;;;;;;4886123;28;21216;-74
2021/01/27 05:21:26;;;;;;;16.53;9.70;;;-0.80;12.50;;;;;;4892114;28;21102;-77
2021/01/27 05:23:49;;;;;;;16.53;10.33;;;;;;;;;;4884986;28;20630;-75
2021/01/27 05:26:13;;;;;;;19.40;10.80;;;-0.70;12.10;;;;;;4888638;28;20694;-76
2021/01/27 05:28:39;;;;;;;15.17;10.03;;;-0.80;8.70;;;;;;4886602;28;20681;-75
2021/01/27 05:31:01;;;;;;;16.90;11.27;;;;;;;;;;4893393;28;20613;-74
2021/01/27 05:33:43;;;;;;;17.30;11.80;;;-0.70;9.10;;;;;;4886742;28;20651;-74
2021/01/27 05:36:08;;;;;;;17.03;11.33;;;-0.70;10.70;;;;;;4887726;28;20585;-75
2021/01/27 05:38:32;;;;;;;20.07;12.03;;;-0.70;16.90;;;;;;4884978;28;20622;-75
2021/01/27 05:41:06;;;;;;;16.87;11.30;;;-0.70;14.60;;;;;;4885909;28;20668;-75
2021/01/27 05:43:28;;;;;;;20.23;12.40;;;;;;;;;;4887095;28;20574;-76
2021/01/27 05:45:51;;;;;;;17.90;11.83;;;-0.70;6.30;;;;;;4889178;28;20712;-75
2021/01/27 05:48:28;;;;;;;17.97;11.53;;;-1.30;9.00;;;;;;4890832;28;20617;-74
2021/01/27 05:50:53;;;;;;;16.90;11.00;;;-0.70;15.50;;;;;;4884050;28;20627;-75
2021/01/27 05:53:17;;;;;;;19.73;12.50;;;-0.60;17.00;;;;;;4884862;28;20975;-75
2021/01/27 05:56:00;;;;;;;18.87;12.10;;;-0.70;17.80;;;;;;4886805;28;21161;-75
2021/01/27 05:58:23;;;;;;;18.13;11.07;;;;;;;;;;4886170;28;20587;-74
2021/01/27 06:00:45;;;;;;;23.27;14.60;;;;;;;;;;4883584;28;20650;-77
2021/01/27 06:03:08;;;;;;;18.93;11.73;;;-0.60;1.00;;;;;;4885616;28;20705;-75
2021/01/27 06:05:39;;;;;;;18.93;11.87;;;-0.60;1.00;;;;;;4877845;28;21074;-75
2021/01/27 06:08:10;;;;;;;18.50;11.40;;;-0.60;1.00;;;;;;4880888;28;20607;-75
2021/01/27 06:10:35;;;;;;;19.27;12.07;;;-0.60;1.00;;;;;;4882511;28;20643;-74
2021/01/27 06:13:16;;;;;;;20.30;12.67;;;-0.60;1.00;;;;;;4887774;28;20606;-75
2021/01/27 06:15:38;;;;;;;17.30;11.60;;;;;;;;;;4885435;28;20578;-76
2021/01/27 06:18:00;;;;;;;17.13;11.40;;;;;;;;;;4888059;28;20929;-78
2021/01/27 06:20:30;;;;;;;15.87;10.60;;;-0.50;14.00;;;;;;4886056;28;20614;-74
2021/01/27 06:23:19;;;;;;;20.40;12.80;;;-0.40;15.10;;;;;;4888473;28;20648;-75
2021/01/27 06:25:51;;;;;;;20.30;12.60;;;-0.40;14.70;;;;;;4856512;28;20705;-75
2021/01/27 06:28:22;;;;;;;20.00;12.93;;;-0.40;18.30;;;;;;4884980;28;20594;-75
2021/01/27 06:31:09;;;;;;;19.93;13.03;;;-0.40;21.00;;;;;;4885644;28;20641;-75
2021/01/27 06:33:53;;;;;;;21.37;13.00;;;-0.40;22.70;;;;;;4881108;28;20594;-75
2021/01/27 06:36:33;;;;;;;20.00;13.77;;;-0.40;22.30;;;;;;4884840;28;20687;-77
2021/01/27 06:39:33;;;;;;;23.10;14.63;;;-0.30;21.40;;;;;;4884738;28;20967;-76
2021/01/27 06:42:12;;;;;;;20.90;13.77;;;-0.30;18.80;;;;;;4885478;28;20647;-76
2021/01/27 06:44:45;;;;;;;22.73;14.57;;;-0.20;18.80;;;;;;4877503;28;20630;-76
2021/01/27 06:47:26;;;;;;;26.37;15.63;;;-0.20;18.90;;;;;;4890497;28;20597;-77
2021/01/27 06:50:23;;;;;;;26.27;15.40;;;-0.20;18.70;;;;;;4885949;28;21057;-76
2021/01/27 06:53:24;;;;;;;35.20;19.37;;;-0.10;13.00;;;;;;4882473;28;20587;-77
2021/01/27 06:56:04;;;;;;;30.57;16.97;;;-0.10;13.00;;;;;;4885265;28;20590;-76
2021/01/27 06:59:07;;;;;;;24.10;15.27;;;0.00;13.30;;;;;;4884866;28;20686;-74
2021/01/27 07:01:48;;;;;;;31.73;18.47;;;0.00;13.80;;;;;;4880573;28;20690;-77
2021/01/27 07:04:39;;;;;;;26.80;16.23;;;0.10;12.70;;;;;;4886875;28;20591;-76
2021/01/27 07:07:19;;;;;;;25.20;16.07;;;0.00;5.80;;;;;;4888163;28;20975;-75
2021/01/27 07:10:08;;;;;;;25.17;15.83;;;0.20;1.00;;;;;;4887877;28;20656;-76
2021/01/27 07:12:37;;;;;;;24.50;15.57;;;0.20;1.00;;;;;;4884762;28;20582;-76
2021/01/27 07:15:22;;;;;;;24.20;14.17;;;0.30;1.00;;;;;;4882505;28;21235;-76
2021/01/27 07:18:16;;;;;;;25.93;15.80;;;0.40;1.00;;;;;;4891045;28;20593;-76
2021/01/27 07:20:42;;;;;;;25.67;15.20;;;0.50;1.00;;;;;;4890253;28;20618;-76
2021/01/27 07:23:10;;;;;;;22.43;13.83;;;0.50;1.00;;;;;;4895972;28;20632;-76
2021/01/27 07:25:51;;;;;;;22.50;12.43;;;0.60;1.00;;;;;;4895775;28;20626;-76
2021/01/27 07:28:18;;;;;;;18.43;13.40;;;0.60;1.00;;;;;;4894935;28;20617;-76
2021/01/27 07:30:50;;;;;;;22.30;13.63;;;0.60;1.00;;;;;;4890535;28;20193;-76
2021/01/27 07:33:31;;;;;;;19.77;13.17;;;0.60;1.00;;;;;;4878192;28;20181;-75
2021/01/27 07:36:08;;;;;;;20.50;13.60;;;0.50;1.00;;;;;;4887317;28;20181;-74
2021/01/27 07:38:34;;;;;;;22.87;15.43;;;0.80;1.00;;;;;;4878585;28;20180;-75
2021/01/27 07:41:00;;;;;;;20.27;12.37;;;0.90;1.00;;;;;;4888154;28;20211;-76
2021/01/27 07:43:28;;;;;;;15.53;10.63;;;0.70;1.00;;;;;;4880225;28;20197;-76
2021/01/27 07:45:54;;;;;;;18.87;11.77;;;0.80;1.00;;;;;;4884422;28;20312;-75
2021/01/27 07:48:22;;;;;;;15.37;8.83;;;1.00;1.00;;;;;;4884300;28;20266;-76
2021/01/27 07:50:50;;;;;;;17.53;10.87;;;0.90;1.00;;;;;;4880995;28;20434;-76
2021/01/27 07:53:19;;;;;;;21.50;12.30;;;1.10;1.00;;;;;;4882379;28;20193;-76
2021/01/27 07:55:49;;;;;;;17.33;10.63;;;0.90;99.90;;;;;;4864087;28;20185;-76
2021/01/27 07:58:15;;;;;;;13.73;8.73;;;1.00;99.90;;;;;;4883562;28;20684;-76
2021/01/27 08:00:43;;;;;;;27.60;15.20;;;1.00;1.00;;;;;;4884582;28;20709;-77
2021/01/27 08:03:30;;;;;;;16.13;10.27;;;1.00;1.00;;;;;;4885281;28;20664;-77
2021/01/27 08:05:59;;;;;;;18.13;10.10;;;1.30;1.00;;;;;;4878611;28;21433;-76
2021/01/27 08:08:23;;;;;;;13.97;9.23;;;1.30;28.90;;;;;;4886141;28;20227;-76
2021/01/27 08:10:48;;;;;;;17.17;10.50;;;3.10;99.90;;;;;;4886951;28;20246;-79
2021/01/27 08:13:33;;;;;;;14.40;8.97;;;1.50;1.00;;;;;;4883932;28;20189;-77
2021/01/27 08:16:07;;;;;;;17.43;9.87;;;1.30;49.40;;;;;;4878947;28;20200;-77
2021/01/27 08:18:30;;;;;;;12.83;8.30;;;1.20;1.00;;;;;;4898911;28;20679;-76
2021/01/27 08:21:23;;;;;;;11.40;7.47;;;1.40;99.90;;;;;;4884777;28;20204;-76
2021/01/27 08:23:47;;;;;;;15.50;9.07;;;1.50;1.00;;;;;;4889141;28;20197;-77
2021/01/27 08:26:09;;;;;;;10.43;6.77;;;;;;;;;;4887927;28;20262;-76
2021/01/27 08:28:48;;;;;;;18.50;10.53;;;1.70;1.00;;;;;;4885323;28;20181;-76
2021/01/27 08:31:19;;;;;;;15.87;9.90;;;1.80;99.90;;;;;;4882915;28;20243;-76
2021/01/27 08:33:50;;;;;;;18.33;10.60;;;1.90;99.90;;;;;;4876937;28;20186;-77
2021/01/27 08:36:14;;;;;;;18.50;11.23;;;2.00;99.90;;;;;;4881589;28;20201;-76
2021/01/27 08:38:40;;;;;;;18.63;10.50;;;2.10;1.00;;;;;;4887986;28;20754;-77
2021/01/27 08:41:04;;;;;;;12.10;7.80;;;2.20;1.00;;;;;;4878741;28;20190;-76
2021/01/27 08:43:30;;;;;;;14.27;8.03;;;2.30;91.80;;;;;;4877914;28;20198;-76
2021/01/27 08:45:52;;;;;;;15.13;9.63;;;;;;;;;;4883945;28;20291;-76
2021/01/27 08:48:15;;;;;;;11.03;6.70;;;;;;;;;;4888751;28;20543;-75
2021/01/27 08:50:49;;;;;;;15.43;8.30;;;2.50;99.90;;;;;;4877726;28;20700;-75
2021/01/27 08:53:12;;;;;;;10.87;6.53;;;2.60;99.90;;;;;;4875679;28;20636;-76
2021/01/27 08:55:54;;;;;;;14.40;7.97;;;2.50;99.90;;;;;;4874963;28;20193;-76
2021/01/27 08:58:31;;;;;;;12.40;8.30;;;2.50;99.90;;;;;;4874792;28;20224;-78
2021/01/27 09:00:56;;;;;;;15.20;8.80;;;2.50;99.90;;;;;;4873392;28;20202;-76
2021/01/27 09:03:58;;;;;;;15.70;8.77;;;2.40;99.90;;;;;;4875452;28;20229;-77
2021/01/27 09:06:27;;;;;;;11.87;7.67;;;2.50;99.90;;;;;;4876288;28;20263;-77
2021/01/27 09:08:51;;;;;;;11.53;7.03;;;2.50;99.90;;;;;;4893774;28;20184;-77
2021/01/27 09:11:18;;;;;;;8.97;6.40;;;2.60;34.40;;;;;;4890117;28;20189;-76
2021/01/27 09:13:43;;;;;;;16.17;9.87;;;2.60;99.90;;;;;;4893311;28;20596;-76
2021/01/27 09:16:08;;;;;;;13.27;7.33;;;2.70;99.90;;;;;;4892916;28;20671;-76
2021/01/27 09:18:30;;;;;;;11.50;6.63;;;2.80;99.90;;;;;;4893220;28;20226;-75
2021/01/27 09:20:53;;;;;;;12.37;6.70;;;2.80;1.00;;;;;;4891276;28;20185;-77
2021/01/27 09:23:20;;;;;;;9.90;6.23;;;2.90;1.00;;;;;;4893118;28;20189;-76
2021/01/27 09:25:47;;;;;;;10.33;6.40;;;3.10;1.00;;;;;;4894092;28;20254;-76
2021/01/27 09:28:11;;;;;;;8.97;5.93;;;3.10;1.00;;;;;;4895508;28;20197;-76
2021/01/27 09:30:34;;;;;;;13.50;7.97;;;3.10;1.00;;;;;;4879598;28;20197;-76
2021/01/27 09:33:11;;;;;;;11.17;6.80;;;3.10;1.00;;;;;;4897606;28;20239;-75
2021/01/27 09:35:33;;;;;;;13.30;7.60;;;;;;;;;;4881993;28;20189;-76
2021/01/27 09:37:58;;;;;;;9.90;6.40;;;3.10;1.00;;;;;;4878641;28;20251;-75
2021/01/27 09:40:30;;;;;;;8.10;5.20;;;3.10;1.00;;;;;;4886918;28;20691;-76
2021/01/27 09:42:56;;;;;;;7.90;5.57;;;3.00;1.00;;;;;;4889970;28;20230;-77
2021/01/27 09:45:28;;;;;;;7.07;4.80;;;3.00;1.00;;;;;;4889185;28;20193;-76
2021/01/27 09:47:50;;;;;;;13.93;8.73;;;;;;;;;;4877822;28;20228;-76
2021/01/27 09:50:13;;;;;;;14.10;8.70;;;;;;;;;;4882708;28;20185;-76
2021/01/27 09:52:35;;;;;;;10.33;6.63;;;2.90;1.00;;;;;;4896810;28;20237;-77
2021/01/27 09:55:04;;;;;;;11.87;7.30;;;2.80;99.90;;;;;;4889629;28;20189;-78
2021/01/27 09:57:29;;;;;;;6.93;4.67;;;2.90;99.90;;;;;;4893728;28;20185;-76
2021/01/27 09:59:53;;;;;;;8.37;5.77;;;2.80;99.90;;;;;;4891907;28;20674;-80
2021/01/27 10:02:15;;;;;;;8.43;5.27;;;;;;;;;;4884873;28;20266;-78
2021/01/27 10:04:39;;;;;;;11.43;7.00;;;3.00;99.90;;;;;;4879765;28;20223;-79
2021/01/27 10:07:15;;;;;;;13.57;7.73;;;3.00;99.90;;;;;;4881000;28;20209;-79
2021/01/27 10:09:52;;;;;;;15.10;9.30;;;3.00;99.90;;;;;;4888366;28;20188;-80
2021/01/27 10:12:24;;;;;;;9.67;6.07;;;3.10;99.90;;;;;;4870878;28;20224;-81
2021/01/27 10:14:48;;;;;;;9.10;6.37;;;3.10;99.90;;;;;;4879688;28;20683;-78
2021/01/27 10:17:12;;;;;;;10.90;6.43;;;3.20;99.90;;;;;;4897070;28;20181;-79
2021/01/27 10:19:40;;;;;;;11.77;6.73;;;3.30;99.90;;;;;;4890154;28;20186;-80
2021/01/27 10:22:06;;;;;;;9.93;6.27;;;3.30;99.90;;;;;;4878084;28;20185;-79
2021/01/27 10:24:46;;;;;;;8.70;5.70;;;3.30;99.90;;;;;;4877718;28;20193;-76
2021/01/27 10:27:09;;;;;;;11.30;6.00;;;;;;;;;;4880897;28;20212;-76
2021/01/27 10:29:36;;;;;;;8.37;5.40;;;3.20;99.90;;;;;;4876779;28;20573;-76
2021/01/27 10:32:19;;;;;;;10.47;6.23;;;3.20;99.90;;;;;;4877776;28;20712;-77
2021/01/27 10:34:43;;;;;;;10.77;6.63;;;3.10;99.90;;;;;;4878015;28;20185;-76
2021/01/27 10:37:06;;;;;;;8.97;5.43;;;3.00;99.90;;;;;;4876144;28;20185;-76
2021/01/27 10:39:29;;;;;;;8.43;5.10;;;3.00;99.90;;;;;;4882882;28;20196;-76
2021/01/27 10:41:54;;;;;;;8.70;5.60;;;3.00;99.90;;;;;;4896834;28;20184;-75
2021/01/27 10:44:26;;;;;;;8.57;5.03;;;2.90;99.90;;;;;;4891092;28;20193;-77
2021/01/27 10:46:50;;;;;;;8.63;5.60;;;2.90;99.90;;;;;;4888047;28;20221;-75
2021/01/27 10:49:13;;;;;;;10.20;6.00;;;2.90;99.90;;;;;;4879237;28;20189;-75
2021/01/27 10:51:35;;;;;;;10.97;5.63;;;;;;;;;;4896067;28;20193;-79
2021/01/27 10:53:58;;;;;;;8.20;5.00;;;;;;;;;;4893769;28;20185;-75
2021/01/27 10:56:20;;;;;;;8.53;5.13;;;;;;;;;;4877190;28;20196;-77
2021/01/27 10:58:42;;;;;;;6.70;4.37;;;;;;;;;;4877832;28;20238;-76
2021/01/27 11:01:04;;;;;;;10.37;5.73;;;;;;;;;;4873560;28;20205;-75
2021/01/27 11:03:27;;;;;;;8.37;5.40;;;;;;;;;;4876185;28;20240;-77
2021/01/27 11:05:50;;;;;;;11.10;6.77;;;3.30;99.90;;;;;;4866450;28;20186;-75
2021/01/27 11:08:19;;;;;;;11.90;6.90;;;3.30;99.90;;;;;;4857052;28;20186;-75
2021/01/27 11:10:42;;;;;;;11.13;7.13;;;;;;;;;;4870281;28;20193;-76
2021/01/27 11:13:04;;;;;;;10.13;6.93;;;;;;;;;;4858711;28;20186;-77
2021/01/27 11:15:26;;;;;;;8.60;6.50;;;;;;;;;;4857911;28;20189;-76
2021/01/27 11:17:49;;;;;;;11.17;7.10;;;3.00;1.00;;;;;;4869675;28;20240;-75
2021/01/27 11:20:12;;;;;;;11.43;7.00;;;3.00;1.00;;;;;;4874550;28;20201;-75
2021/01/27 11:22:35;;;;;;;10.60;6.97;;;3.00;97.80;;;;;;4875636;28;20829;-75
2021/01/27 11:24:57;;;;;;;7.97;4.83;;;;;;;;;;4876673;28;20216;-76
2021/01/27 11:27:21;;;;;;;7.57;5.23;;;;;;;;;;4869140;28;20268;-75
2021/01/27 11:29:43;;;;;;;10.33;7.00;;;;;;;;;;4856527;28;20201;-75
2021/01/27 11:32:06;;;;;;;8.30;6.00;;;;;;;;;;4858059;28;20683;-75
2021/01/27 11:34:28;;;;;;;7.20;4.97;;;;;;;;;;4857340;28;20236;-76
2021/01/27 11:36:50;;;;;;;6.53;4.70;;;;;;;;;;4861499;28;20189;-76
2021/01/27 11:39:13;;;;;;;7.77;5.10;;;3.80;1.00;;;;;;4874881;28;20641;-76
2021/01/27 11:41:35;;;;;;;13.33;7.17;;;;;;;;;;4873301;28;20201;-77
2021/01/27 11:43:58;;;;;;;7.03;4.70;;;;;;;;;;4873667;28;20181;-75
2021/01/27 11:46:21;;;;;;;9.10;5.40;;;4.20;99.90;;;;;;4874332;28;20210;-76
2021/01/27 11:48:43;;;;;;;8.13;5.43;;;;;;;;;;4856628;28;20586;-76
2021/01/27 11:51:06;;;;;;;7.70;5.53;;;;;;;;;;4856308;28;20189;-76
2021/01/27 11:53:28;;;;;;;7.60;4.83;;;;;;;;;;4856433;28;20267;-76
2021/01/27 11:55:51;;;;;;;8.47;5.07;;;4.50;26.40;;;;;;4859363;28;20240;-76
2021/01/27 11:58:13;;;;;;;9.27;5.67;;;;;;;;;;4875570;28;20589;-75
2021/01/27 12:00:35;;;;;;;21.43;11.40;;;;;;;;;;4874033;28;20205;-75
2021/01/27 12:02:58;;;;;;;8.07;5.30;;;;;;;;;;4854265;28;20233;-75
2021/01/27 12:05:20;;;;;;;8.30;4.80;;;;;;;;;;4858250;28;20190;-76
2021/01/27 12:07:42;;;;;;;8.73;5.63;;;;;;;;;;4856929;28;20218;-74
2021/01/27 12:10:05;;;;;;;9.73;6.07;;;4.40;1.00;;;;;;4872349;28;20189;-76
2021/01/27 12:12:28;;;;;;;8.07;5.33;;;4.50;15.90;;;;;;4873879;28;20247;-76
2021/01/27 12:14:50;;;;;;;7.20;5.17;;;;;;;;;;4873847;28;20239;-75
2021/01/27 12:17:13;;;;;;;6.90;4.93;;;;;;;;;;4868431;28;20240;-75
2021/01/27 12:19:35;;;;;;;9.57;5.93;;;;;;;;;;4856678;28;20178;-75
2021/01/27 12:21:57;;;;;;;7.83;5.30;;;;;;;;;;4856664;28;20643;-75
2021/01/27 12:24:19;;;;;;;8.03;5.50;;;;;;;;;;4856182;28;20198;-77
2021/01/27 12:26:42;;;;;;;9.37;6.13;;;;;;;;;;4862525;28;20235;-76
2021/01/27 12:29:05;;;;;;;8.40;6.17;;;4.80;99.90;;;;;;4868922;28;20190;-75
2021/01/27 12:31:27;;;;;;;6.47;5.07;;;;;;;;;;4858321;28;20197;-75
2021/01/27 12:33:49;;;;;;;7.37;5.20;;;;;;;;;;4874196;28;20197;-76
2021/01/27 12:36:12;;;;;;;7.83;5.13;;;;;;;;;;4862157;28;20222;-75
2021/01/27 12:38:34;;;;;;;8.23;5.97;;;;;;;;;;4856404;28;20186;-75
2021/01/27 12:40:57;;;;;;;8.30;5.67;;;;;;;;;;4855077;28;20617;-76
2021/01/27 12:43:19;;;;;;;9.20;6.30;;;;;;;;;;4856622;28;20198;-75
2021/01/27 12:45:42;;;;;;;11.03;6.70;;;3.80;1.00;;;;;;4865806;28;20713;-76
2021/01/27 12:48:07;;;;;;;8.87;5.70;;;3.50;99.90;;;;;;4863516;28;20283;-76
2021/01/27 12:50:30;;;;;;;10.30;7.17;;;;;;;;;;4869467;28;20193;-75
2021/01/27 12:52:52;;;;;;;10.53;6.87;;;;;;;;;;4875850;28;20244;-74
2021/01/27 12:55:16;;;;;;;12.03;7.23;;;3.20;99.90;;;;;;4871387;28;20243;-80
2021/01/27 12:57:40;;;;;;;10.73;7.23;;;2.80;1.00;;;;;;4859610;28;20244;-76
2021/01/27 13:00:05;;;;;;;8.67;6.27;;;3.00;1.00;;;;;;4874521;28;20583;-76
2021/01/27 13:02:28;;;;;;;10.30;7.20;;;2.90;99.90;;;;;;4875917;28;20236;-75
2021/01/27 13:04:50;;;;;;;10.53;7.40;;;;;;;;;;4879346;28;20243;-74
2021/01/27 13:07:13;;;;;;;13.13;7.73;;;;;;;;;;4879932;28;20275;-75
2021/01/27 13:09:35;;;;;;;10.73;7.97;;;;;;;;;;4885041;28;20241;-75
2021/01/27 13:11:57;;;;;;;9.13;7.20;;;;;;;;;;4880627;28;20248;-74
2021/01/27 13:14:20;;;;;;;13.80;7.70;;;2.80;1.00;;;;;;4881058;28;20189;-74
2021/01/27 13:16:42;;;;;;;13.57;7.40;;;;;;;;;;4878158;28;20197;-75
2021/01/27 13:19:05;;;;;;;11.10;7.73;;;2.80;99.90;;;;;;4878120;28;20658;-75